Time;durP1;ratioP1;P1;durP2;ratioP2;P2;SDS_P1;SDS_P2;PMS_P1;PMS_P2;Temp;Humidity;BMP_temperature;BMP_pressure;BME280_temperature;BME280_humidity;BME280_pressure;Samples;Min_cycle;Max_cycle;Signal;HPM_P1;HPM_P2
2022/05/12 00:00:41;;;;;;;17.95;11.30;;;;;;;17.66;74.94;100257.44;5074220;28;20044;-72
2022/05/12 00:03:09;;;;;;;17.23;10.95;;;;;;;17.65;74.84;100259.28;5074195;28;20072;-71
2022/05/12 00:05:39;;;;;;;13.68;10.32;;;;;;;17.56;75.80;100257.41;5073840;28;20054;-74
2022/05/12 00:08:07;;;;;;;16.55;10.57;;;;;;;17.59;75.69;100261.72;5075084;28;20046;-73
2022/05/12 00:10:36;;;;;;;16.63;10.20;;;;;;;17.57;75.96;100258.31;5073868;28;20041;-73
2022/05/12 00:13:07;;;;;;;16.25;9.98;;;;;;;17.53;75.95;100252.31;5075448;28;20392;-73
2022/05/12 00:15:36;;;;;;;14.10;9.90;;;;;;;17.50;76.14;100257.97;5075030;28;20063;-73
2022/05/12 00:18:08;;;;;;;12.63;9.65;;;;;;;17.48;76.44;100259.97;5075012;28;20047;-73
2022/05/12 00:20:41;;;;;;;14.90;10.25;;;;;;;17.45;76.73;100255.69;5073673;28;20385;-73
2022/05/12 00:23:12;;;;;;;15.60;9.57;;;;;;;17.41;76.97;100253.41;5075259;28;20040;-74
2022/05/12 00:25:44;;;;;;;16.35;10.40;;;;;;;17.40;76.89;100251.69;5074798;28;20033;-74
2022/05/12 00:28:13;;;;;;;15.27;9.60;;;;;;;17.33;77.27;100237.03;5074056;28;20036;-74
2022/05/12 00:30:43;;;;;;;15.98;10.13;;;;;;;17.32;77.41;100240.72;5075089;28;20067;-74
2022/05/12 00:33:11;;;;;;;13.15;10.10;;;;;;;17.22;77.71;100246.09;5074921;28;20033;-74
2022/05/12 00:35:44;;;;;;;15.13;10.23;;;;;;;17.20;78.07;100239.13;5074533;28;20045;-74
2022/05/12 00:38:13;;;;;;;14.70;10.68;;;;;;;17.14;78.27;100238.66;5090375;28;20045;-72
2022/05/12 00:40:44;;;;;;;14.85;10.27;;;;;;;17.12;78.67;100243.34;5073647;28;20106;-73
2022/05/12 00:43:37;;;;;;;15.23;10.25;;;;;;;17.05;79.11;100236.78;5090422;28;20041;-74
2022/05/12 00:46:07;;;;;;;16.35;10.73;;;;;;;16.99;79.51;100239.19;5074796;28;20040;-74
2022/05/12 00:48:36;;;;;;;15.45;10.70;;;;;;;16.93;80.12;100243.25;5074227;28;20568;-74
2022/05/12 00:51:07;;;;;;;17.55;10.65;;;;;;;16.90;80.55;100245.34;5074253;28;20072;-74
2022/05/12 00:53:36;;;;;;;14.45;10.60;;;;;;;16.87;80.84;100249.16;5074317;28;20116;-74
2022/05/12 00:56:10;;;;;;;14.43;10.05;;;;;;;16.87;81.11;100244.63;5073085;28;20048;-74
2022/05/12 00:58:40;;;;;;;13.63;9.88;;;;;;;16.90;81.11;100248.06;5072867;28;20082;-74
2022/05/12 01:01:10;;;;;;;13.95;9.95;;;;;;;16.91;81.25;100253.31;5073846;28;20040;-74
2022/05/12 01:03:42;;;;;;;14.63;10.00;;;;;;;16.93;81.08;100247.78;5074218;28;20476;-74
2022/05/12 01:06:13;;;;;;;13.63;10.10;;;;;;;16.97;80.83;100250.06;5073984;28;20037;-74
2022/05/12 01:08:42;;;;;;;16.35;9.95;;;;;;;16.98;80.86;100245.53;5074047;28;20528;-74
2022/05/12 01:11:14;;;;;;;13.45;10.38;;;;;;;16.97;80.69;100247.38;5072906;28;20036;-74
2022/05/12 01:13:43;;;;;;;16.75;10.48;;;;;;;16.95;80.64;100249.34;5090025;28;20135;-74
2022/05/12 01:16:11;;;;;;;21.75;10.95;;;;;;;16.92;80.78;100246.06;5074111;28;20430;-73
2022/05/12 01:18:42;;;;;;;14.00;10.70;;;;;;;16.82;81.29;100246.88;5072182;28;20055;-74
2022/05/12 01:21:12;;;;;;;16.63;11.50;;;;;;;16.91;80.48;100249.75;5073612;28;20496;-73
2022/05/12 01:23:42;;;;;;;18.83;11.45;;;;;;;16.99;79.90;100248.09;5073709;28;20037;-73
2022/05/12 01:26:13;;;;;;;20.63;11.60;;;;;;;16.86;80.59;100250.13;5072625;28;20136;-73
2022/05/12 01:28:42;;;;;;;17.17;12.25;;;;;;;16.72;81.64;100245.09;5073691;28;20036;-73
2022/05/12 01:31:16;;;;;;;29.65;12.93;;;;;;;16.47;83.69;100248.97;5072782;28;20385;-73
2022/05/12 01:33:44;;;;;;;24.08;13.57;;;;;;;16.41;84.59;100255.75;5073552;28;20044;-73
2022/05/12 01:36:12;;;;;;;23.98;13.48;;;;;;;16.48;84.08;100254.22;5072475;28;20083;-73
2022/05/12 01:38:42;;;;;;;26.50;14.23;;;;;;;16.45;84.30;100246.44;5073504;28;20071;-73
2022/05/12 01:41:10;;;;;;;29.02;13.43;;;;;;;16.39;84.82;100249.63;5072387;28;20047;-73
2022/05/12 01:43:38;;;;;;;20.80;13.23;;;;;;;16.45;84.49;100254.50;5072050;28;20547;-73
2022/05/12 01:46:07;;;;;;;23.33;13.25;;;;;;;16.46;84.28;100255.34;5073618;28;20051;-74
2022/05/12 01:48:35;;;;;;;20.85;12.25;;;;;;;16.50;83.89;100251.41;5073372;28;20105;-74
2022/05/12 01:51:04;;;;;;;20.48;12.30;;;;;;;16.40;84.26;100248.63;5073235;28;20086;-74
2022/05/12 01:53:32;;;;;;;22.15;12.48;;;;;;;16.48;83.93;100254.22;5071626;28;20179;-73
2022/05/12 01:56:02;;;;;;;18.67;12.25;;;;;;;16.49;83.07;100250.56;5073216;28;20072;-74
2022/05/12 01:58:31;;;;;;;24.40;12.27;;;;;;;16.48;83.34;100253.38;5073337;28;20123;-73
2022/05/12 02:01:01;;;;;;;22.40;11.85;;;;;;;16.55;82.66;100255.44;5073373;28;20101;-73
2022/05/12 02:03:29;;;;;;;27.10;12.27;;;;;;;16.44;82.91;100246.56;5071937;28;20075;-73
2022/05/12 02:05:58;;;;;;;23.05;11.30;;;;;;;16.35;83.79;100242.81;5072155;28;20469;-73
2022/05/12 02:08:26;;;;;;;25.17;12.07;;;;;;;16.19;84.62;100243.22;5073111;28;20424;-74
2022/05/12 02:10:54;;;;;;;20.55;12.40;;;;;;;15.88;88.12;100244.94;5069974;28;20055;-74
2022/05/12 02:13:26;;;;;;;22.13;11.95;;;;;;;15.93;88.04;100248.09;5071210;28;20044;-74
2022/05/12 02:15:57;;;;;;;22.00;11.97;;;;;;;15.86;88.95;100238.81;5070550;28;20041;-73
2022/05/12 02:18:27;;;;;;;25.00;12.55;;;;;;;15.80;89.94;100236.63;5053181;28;20293;-74
2022/05/12 02:20:56;;;;;;;22.25;12.30;;;;;;;15.84;89.83;100232.72;5052897;28;20481;-73
2022/05/12 02:23:24;;;;;;;25.35;11.77;;;;;;;15.99;87.98;100223.38;5068582;28;20373;-74
2022/05/12 02:25:52;;;;;;;21.27;11.48;;;;;;;15.95;88.24;100232.69;5073207;28;20358;-74
2022/05/12 02:28:20;;;;;;;22.92;11.57;;;;;;;15.87;88.74;100223.53;5073273;28;20047;-73
2022/05/12 02:30:50;;;;;;;21.77;11.95;;;;;;;15.89;88.42;100230.50;5073155;28;20068;-72
2022/05/12 02:33:18;;;;;;;23.70;11.25;;;;;;;15.83;88.59;100222.94;5073112;28;20044;-71
2022/05/12 02:35:46;;;;;;;20.13;10.55;;;;;;;15.89;87.67;100225.13;5071550;28;20052;-72
2022/05/12 02:38:15;;;;;;;25.10;11.02;;;;;;;16.03;86.52;100232.91;5071632;28;20040;-71
2022/05/12 02:40:43;;;;;;;23.42;11.70;;;;;;;15.92;87.03;100227.56;5057695;28;20049;-71
2022/05/12 02:43:24;;;;;;;21.63;11.93;;;;;;;15.90;87.57;100237.56;5052948;28;20086;-71
2022/05/12 02:45:57;;;;;;;20.05;11.68;;;;;;;15.81;87.61;100235.66;5051702;28;20041;-73
2022/05/12 02:48:28;;;;;;;22.20;10.93;;;;;;;15.60;89.75;100240.94;5052659;28;20069;-73
2022/05/12 02:50:56;;;;;;;22.10;11.10;;;;;;;15.60;90.31;100235.56;5053113;28;20120;-72
2022/05/12 02:53:25;;;;;;;21.60;12.05;;;;;;;15.50;91.35;100236.41;5052704;28;20039;-73
2022/05/12 02:55:59;;;;;;;21.73;11.60;;;;;;;15.39;92.80;100238.13;5051700;28;20474;-72
2022/05/12 02:58:27;;;;;;;21.33;11.43;;;;;;;15.38;93.10;100244.50;5051224;28;20282;-73
2022/05/12 03:00:57;;;;;;;21.33;11.43;;;;;;;15.26;95.25;100247.31;5052827;28;20033;-72
2022/05/12 03:03:27;;;;;;;17.42;11.30;;;;;;;15.33;94.35;100233.25;5052518;28;20041;-72
2022/05/12 03:05:56;;;;;;;18.38;11.18;;;;;;;15.41;93.26;100246.91;5051547;28;20049;-72
2022/05/12 03:08:25;;;;;;;17.10;11.07;;;;;;;15.30;94.77;100243.38;5067908;28;20037;-74
2022/05/12 03:10:53;;;;;;;17.55;11.25;;;;;;;15.26;95.50;100245.47;5052845;28;20044;-72
2022/05/12 03:13:23;;;;;;;17.02;11.32;;;;;;;15.26;95.71;100242.78;5052636;28;20045;-72
2022/05/12 03:15:52;;;;;;;18.38;10.98;;;;;;;15.33;94.71;100244.00;5052769;28;20043;-72
2022/05/12 03:18:22;;;;;;;20.50;11.02;;;;;;;15.38;94.36;100247.19;5052641;28;20072;-72
2022/05/12 03:20:53;;;;;;;15.40;10.65;;;;;;;15.57;91.81;100246.56;5051534;28;20505;-72
2022/05/12 03:23:24;;;;;;;14.27;10.38;;;;;;;15.59;91.21;100254.50;5068424;28;20051;-72
2022/05/12 03:25:53;;;;;;;17.10;10.95;;;;;;;15.60;90.76;100261.56;5074018;28;20372;-72
2022/05/12 03:28:22;;;;;;;14.40;10.50;;;;;;;15.49;92.30;100258.91;5076114;28;20433;-71
2022/05/12 03:30:53;;;;;;;19.38;10.55;;;;;;;15.54;91.94;100256.69;5075625;28;20094;-73
2022/05/12 03:33:23;;;;;;;16.98;10.48;;;;;;;15.53;91.59;100260.34;5074830;28;20044;-74
2022/05/12 03:35:52;;;;;;;13.55;10.38;;;;;;;15.64;90.62;100258.56;5075998;28;20411;-74
2022/05/12 03:38:20;;;;;;;15.23;9.98;;;;;;;15.74;89.64;100259.53;5075582;28;20044;-74
2022/05/12 03:40:48;;;;;;;15.32;9.90;;;;;;;15.80;89.13;100268.91;5075678;28;20043;-73
2022/05/12 03:44:46;;;;;;;15.07;10.10;;;;;;;15.91;88.15;100263.50;5074459;28;20529;-73
2022/05/12 03:46:07;;;;;;;13.50;10.30;;;;;;;15.96;87.76;100266.69;5074794;28;20386;-73
2022/05/12 03:48:38;;;;;;;15.48;10.70;;;;;;;16.16;86.11;100270.41;5075411;28;20045;-71
2022/05/12 03:51:08;;;;;;;13.82;10.23;;;;;;;16.32;84.67;100272.69;5075845;28;20056;-71
2022/05/12 03:53:37;;;;;;;17.20;9.85;;;;;;;16.78;81.45;100268.78;5074210;28;20076;-71
2022/05/12 03:56:07;;;;;;;17.30;10.23;;;;;;;17.47;76.37;100263.66;5074469;28;20435;-71
2022/05/12 03:58:35;;;;;;;17.35;10.30;;;;;;;18.21;71.78;100261.44;5075574;28;20419;-70
2022/05/12 04:01:04;;;;;;;14.35;9.55;;;;;;;18.88;67.93;100263.28;5075543;28;20120;-72
2022/05/12 04:03:33;;;;;;;14.25;9.82;;;;;;;19.33;65.02;100262.59;5073937;28;20098;-74
2022/05/12 04:06:05;;;;;;;15.70;9.60;;;;;;;19.68;63.39;100264.56;5074100;28;20052;-76
2022/05/12 04:08:34;;;;;;;16.77;9.50;;;;;;;20.14;61.55;100268.16;5074003;28;20049;-76
2022/05/12 04:11:02;;;;;;;16.35;9.77;;;;;;;20.49;59.59;100261.94;5075436;28;20046;-75
2022/05/12 04:13:31;;;;;;;15.75;9.77;;;;;;;20.76;58.63;100268.25;5074777;28;20036;-75
2022/05/12 04:15:59;;;;;;;14.02;9.82;;;;;;;21.22;56.81;100258.03;5073957;28;20044;-75
2022/05/12 04:18:27;;;;;;;13.88;9.02;;;;;;;21.38;56.32;100263.59;5075134;28;20044;-73
2022/05/12 04:20:55;;;;;;;13.07;9.32;;;;;;;21.50;55.30;100265.00;5075319;28;20044;-74
2022/05/12 04:23:25;;;;;;;12.48;9.02;;;;;;;21.66;54.76;100264.25;5073489;28;20481;-71
2022/05/12 04:25:59;;;;;;;16.23;8.88;;;;;;;21.63;54.53;100268.16;5073867;28;20082;-72
2022/05/12 04:28:28;;;;;;;10.90;8.75;;;;;;;21.28;55.69;100269.13;5075067;28;20420;-74
2022/05/12 04:30:56;;;;;;;16.40;9.93;;;;;;;21.51;55.00;100264.00;5074985;28;20036;-74
2022/05/12 04:36:10;;;;;;;11.95;8.88;;;;;;;22.10;53.92;100273.09;5073231;28;20052;-74
2022/05/12 04:38:40;;;;;;;15.52;9.15;;;;;;;22.40;52.42;100276.19;5074634;28;20111;-76
2022/05/12 04:41:13;;;;;;;14.65;8.93;;;;;;;22.65;51.76;100274.34;5073906;28;20044;-76
2022/05/12 04:43:41;;;;;;;14.23;9.07;;;;;;;22.93;51.09;100269.44;5056993;28;20048;-76
2022/05/12 04:46:10;;;;;;;16.80;9.07;;;;;;;23.19;50.10;100278.25;5069933;28;20094;-76
2022/05/12 04:48:39;;;;;;;15.25;9.02;;;;;;;23.57;49.19;100273.03;5052588;28;20045;-72
2022/05/12 04:51:08;;;;;;;13.05;8.40;;;;;;;23.69;48.42;100283.41;5054678;28;20044;-72
2022/05/12 04:53:37;;;;;;;12.52;8.02;;;;;;;23.88;48.15;100278.53;5054195;28;20526;-72
2022/05/12 04:56:06;;;;;;;13.02;8.20;;;;;;;23.74;48.46;100282.88;5053051;28;20363;-72
2022/05/12 04:58:34;;;;;;;18.15;9.10;;;;;;;23.63;48.79;100285.97;5054152;28;20091;-72
2022/05/12 05:01:02;;;;;;;14.50;8.43;;;;;;;23.66;48.93;100282.91;5053053;28;20056;-72
2022/05/12 05:03:32;;;;;;;12.85;8.50;;;;;;;23.84;48.81;100291.69;5053046;28;20048;-74
2022/05/12 05:06:00;;;;;;;12.63;8.77;;;;;;;24.41;47.23;100294.09;5053016;28;20130;-74
2022/05/12 05:08:29;;;;;;;13.70;8.52;;;;;;;24.09;47.52;100286.94;5053980;28;20041;-74
2022/05/12 05:10:57;;;;;;;13.65;8.43;;;;;;;24.28;47.17;100293.81;5053490;28;20041;-74
2022/05/12 05:13:27;;;;;;;16.38;8.93;;;;;;;24.57;46.19;100295.03;5054212;28;20037;-73
2022/05/12 05:15:55;;;;;;;14.13;8.30;;;;;;;24.80;45.79;100299.44;5052543;28;20037;-75
2022/05/12 05:18:24;;;;;;;11.77;7.85;;;;;;;25.19;44.34;100294.84;5052683;28;20072;-82
2022/05/12 05:20:52;;;;;;;15.00;8.55;;;;;;;25.38;44.53;100295.19;5069190;28;20055;-79
2022/05/12 05:23:21;;;;;;;11.23;7.38;;;;;;;25.72;43.01;100295.66;5069011;28;20489;-81
2022/05/12 05:25:53;;;;;;;14.50;7.72;;;;;;;25.85;42.80;100296.69;5071059;28;20055;-81
2022/05/12 05:28:21;;;;;;;12.25;7.78;;;;;;;25.93;42.17;100293.00;5072717;28;20071;-76
2022/05/12 05:30:54;;;;;;;10.77;7.18;;;;;;;26.16;40.99;100293.72;5073774;28;20040;-76
2022/05/12 05:33:22;;;;;;;10.13;7.20;;;;;;;26.23;40.93;100294.63;5062770;28;20059;-87
2022/05/12 05:35:52;;;;;;;12.68;7.40;;;;;;;26.36;40.18;100293.94;5067281;28;20048;-82
2022/05/12 05:38:23;;;;;;;12.00;7.60;;;;;;;26.31;40.09;100295.56;5073502;28;20124;-83
2022/05/12 05:40:51;;;;;;;11.43;7.45;;;;;;;26.40;39.86;100294.44;5072253;28;20044;-82
2022/05/12 05:43:20;;;;;;;11.32;6.78;;;;;;;26.59;39.11;100292.94;5072169;28;20044;-82
2022/05/12 05:45:48;;;;;;;12.45;7.40;;;;;;;26.81;39.17;100295.47;5072923;28;20036;-75
2022/05/12 05:48:18;;;;;;;10.65;7.55;;;;;;;26.96;39.00;100295.41;5072653;28;20052;-88
2022/05/12 05:53:45;;;;;;;10.63;7.25;;;;;;;27.24;38.45;100295.44;5050115;28;20381;-78
2022/05/12 05:56:17;;;;;;;9.25;7.07;;;;;;;27.10;38.22;100301.84;5072175;28;20123;-76
2022/05/12 05:58:46;;;;;;;10.00;7.32;;;;;;;27.29;37.81;100295.69;5071568;28;20045;-78
2022/05/12 06:01:16;;;;;;;16.70;7.13;;;;;;;27.75;37.47;100295.16;5072583;28;20044;-77
2022/05/12 06:03:45;;;;;;;11.32;6.78;;;;;;;27.68;37.58;100297.00;5072834;28;20048;-75
2022/05/12 06:06:14;;;;;;;10.15;6.70;;;;;;;28.06;36.73;100302.03;5072575;28;20060;-77
2022/05/12 06:08:42;;;;;;;15.25;6.65;;;;;;;27.71;36.80;100299.38;5073141;28;20111;-75
2022/05/12 06:11:11;;;;;;;12.23;7.80;;;;;;;27.87;36.81;100309.97;5078452;28;20048;-77
2022/05/12 06:13:39;;;;;;;13.40;6.97;;;;;;;28.14;36.29;100307.34;5057677;28;20052;-78
2022/05/12 06:16:07;;;;;;;13.13;6.50;;;;;;;27.83;36.73;100305.94;5056586;28;20069;-77
2022/05/12 06:18:36;;;;;;;13.45;6.90;;;;;;;28.19;35.70;100308.44;5051359;28;20053;-77
2022/05/12 06:21:06;;;;;;;10.95;6.60;;;;;;;28.61;35.50;100303.72;5056716;28;20049;-77
2022/05/12 06:23:35;;;;;;;12.70;6.90;;;;;;;28.25;36.05;100298.53;5071936;28;20053;-77
2022/05/12 06:26:06;;;;;;;12.65;7.10;;;;;;;28.09;36.74;100302.50;5071590;28;20094;-77
2022/05/12 06:28:36;;;;;;;9.35;6.97;;;;;;;28.63;35.64;100309.00;5071836;28;20549;-77
2022/05/12 06:31:05;;;;;;;11.77;7.72;;;;;;;29.04;34.62;100309.69;5063943;28;20052;-77
2022/05/12 06:33:33;;;;;;;12.23;7.35;;;;;;;28.97;34.35;100311.59;5051348;28;20478;-76
2022/05/12 06:36:03;;;;;;;13.63;8.05;;;;;;;28.89;35.39;100303.56;5059676;28;20055;-75
2022/05/12 06:38:34;;;;;;;14.48;7.22;;;;;;;29.33;34.59;100305.66;5053906;28;20057;-73
2022/05/12 06:41:03;;;;;;;12.40;7.70;;;;;;;29.16;34.77;100309.06;5052514;28;20465;-75
2022/05/12 06:43:32;;;;;;;14.02;7.70;;;;;;;29.31;34.42;100306.94;5051637;28;20045;-76
2022/05/12 06:46:00;;;;;;;8.75;6.68;;;;;;;29.70;33.63;100308.78;5051182;28;20092;-75
2022/05/12 06:48:28;;;;;;;10.35;6.65;;;;;;;29.32;34.71;100306.72;5052167;28;20059;-75
2022/05/12 06:50:56;;;;;;;13.48;7.55;;;;;;;29.73;34.01;100310.28;5051167;28;20060;-74
2022/05/12 06:53:25;;;;;;;9.90;6.60;;;;;;;29.55;34.45;100303.56;5051312;28;20132;-74
2022/05/12 06:55:54;;;;;;;9.85;7.20;;;;;;;28.69;35.79;100298.03;5052130;28;20045;-73
2022/05/12 06:58:22;;;;;;;9.52;6.60;;;;;;;27.87;37.78;100303.63;5052313;28;20095;-80
2022/05/12 07:00:51;;;;;;;10.88;7.10;;;;;;;27.30;38.20;100294.63;5054118;28;20140;-73
2022/05/12 07:03:19;;;;;;;12.52;6.50;;;;;;;26.75;38.85;100307.22;5056085;28;20072;-75
2022/05/12 07:05:47;;;;;;;11.43;7.03;;;;;;;26.43;40.12;100310.44;5054819;28;20056;-78
2022/05/12 07:08:16;;;;;;;10.50;6.50;;;;;;;26.46;41.16;100310.06;5054990;28;20079;-72
2022/05/12 07:10:45;;;;;;;12.50;7.07;;;;;;;26.29;41.80;100312.16;5071213;28;20071;-71
2022/05/12 07:13:19;;;;;;;11.82;6.97;;;;;;;26.12;41.52;100324.34;5055613;28;20051;-73
2022/05/12 07:15:49;;;;;;;12.38;7.15;;;;;;;26.09;41.66;100322.84;5054351;28;20106;-72
2022/05/12 07:18:17;;;;;;;14.52;7.95;;;;;;;25.94;42.43;100319.28;5054204;28;20076;-72
2022/05/12 07:26:42;;;;;;;15.80;8.30;;;;;;;25.63;43.84;100303.06;5049341;28;20059;-72
2022/05/12 07:29:13;;;;;;;16.27;8.63;;;;;;;25.38;44.43;100305.22;5054341;28;20052;-72
2022/05/12 07:31:43;;;;;;;12.23;8.13;;;;;;;25.23;44.61;100307.09;5071202;28;20110;-72
2022/05/12 07:34:14;;;;;;;15.88;8.32;;;;;;;25.24;44.88;100300.59;5054410;28;20053;-72
2022/05/12 07:36:45;;;;;;;12.90;7.95;;;;;;;25.34;44.16;100302.03;5071418;28;20060;-72
2022/05/12 07:39:17;;;;;;;17.67;8.25;;;;;;;25.19;44.81;100301.19;5054309;28;20055;-72
2022/05/12 07:41:45;;;;;;;11.70;7.70;;;;;;;25.14;45.02;100306.34;5055234;28;20041;-73
2022/05/12 07:44:18;;;;;;;13.55;8.15;;;;;;;25.12;45.07;100308.41;5054154;28;20049;-72
2022/05/12 07:46:48;;;;;;;16.88;7.60;;;;;;;25.06;44.92;100303.69;5053941;28;20048;-72
2022/05/12 07:49:17;;;;;;;38.33;10.45;;;;;;;25.04;45.48;100306.59;5055206;28;20064;-72
2022/05/12 07:51:49;;;;;;;12.70;7.70;;;;;;;25.13;45.31;100306.53;5055214;28;20043;-72
2022/05/12 07:54:17;;;;;;;19.75;7.45;;;;;;;25.21;44.75;100298.25;5055302;28;20098;-72
2022/05/12 07:56:46;;;;;;;21.92;7.47;;;;;;;25.26;44.25;100301.25;5053900;28;20103;-74
2022/05/12 07:59:15;;;;;;;18.50;7.10;;;;;;;25.44;44.84;100299.03;5053739;28;20144;-72
2022/05/12 08:01:44;;;;;;;13.63;6.38;;;;;;;25.45;43.66;100299.88;5070830;28;20387;-72
2022/05/12 08:04:13;;;;;;;11.25;6.97;;;;;;;25.44;43.23;100299.03;5053667;28;20520;-72
2022/05/12 08:06:42;;;;;;;10.60;6.65;;;;;;;25.45;43.67;100300.72;5055179;28;20524;-73
2022/05/12 08:09:11;;;;;;;12.27;6.43;;;;;;;25.28;43.63;100299.19;5070301;28;20478;-73
2022/05/12 08:11:40;;;;;;;11.77;6.20;;;;;;;25.23;43.70;100301.66;5054395;28;20570;-73
2022/05/12 08:14:08;;;;;;;15.95;6.47;;;;;;;25.21;43.98;100288.19;5053288;28;20551;-73
2022/05/12 08:16:38;;;;;;;13.00;6.50;;;;;;;25.33;43.71;100302.22;5054641;28;20041;-73
2022/05/12 08:19:07;;;;;;;14.18;6.55;;;;;;;25.43;44.00;100302.78;5053170;28;20056;-73
2022/05/12 08:21:35;;;;;;;10.73;6.43;;;;;;;25.43;44.45;100308.25;5055054;28;20128;-73
2022/05/12 08:24:04;;;;;;;11.95;6.60;;;;;;;25.36;44.26;100304.56;5054606;28;20041;-72
2022/05/12 08:26:33;;;;;;;10.90;5.97;;;;;;;25.52;44.66;100307.13;5053601;28;20056;-72
2022/05/12 08:29:01;;;;;;;8.85;6.50;;;;;;;25.72;43.47;100306.59;5054646;28;20037;-72
2022/05/12 08:31:30;;;;;;;10.77;6.03;;;;;;;25.76;44.32;100296.97;5054259;28;20049;-71
2022/05/12 08:34:00;;;;;;;12.32;6.13;;;;;;;25.77;43.53;100302.28;5054515;28;20048;-73
2022/05/12 08:36:29;;;;;;;12.25;6.47;;;;;;;25.78;42.38;100297.66;5054780;28;20137;-73
2022/05/12 08:38:59;;;;;;;9.23;5.72;;;;;;;25.89;42.93;100298.00;5053046;28;20049;-73
2022/05/12 08:41:37;;;;;;;17.15;6.60;;;;;;;25.77;43.31;100301.41;5053210;28;20040;-73
2022/05/12 08:44:10;;;;;;;10.15;6.35;;;;;;;25.95;42.60;100301.84;5054305;28;20524;-73
2022/05/12 08:46:40;;;;;;;;;;;;;;;26.00;42.40;100301.28;5053502;28;20548;-70
2022/05/12 08:49:19;;;;;;;10.25;6.20;;;;;;;25.96;42.73;100306.28;5052381;28;19966;-72
2022/05/12 08:51:50;;;;;;;14.40;6.85;;;;;;;25.96;42.51;100304.41;5069507;28;20052;-72
2022/05/12 08:54:23;;;;;;;13.32;7.13;;;;;;;26.01;42.59;100301.09;5052545;28;20052;-73
2022/05/12 08:56:55;;;;;;;;;;;;;;;26.08;42.29;100298.47;5052879;28;20064;-72
2022/05/12 08:59:23;;;;;;;14.55;6.10;;;;;;;26.27;41.60;100288.78;5052706;28;19924;-71
2022/05/12 09:02:00;;;;;;;14.18;6.20;;;;;;;26.08;42.40;100301.19;5068925;28;20071;-72
2022/05/12 09:05:00;;;;;;;12.85;5.97;;;;;;;26.23;42.38;100297.38;5054152;28;20041;-71
2022/05/12 09:07:33;;;;;;;16.83;5.75;;;;;;;26.15;42.46;100297.50;5052636;28;20052;-71
2022/05/12 09:10:13;;;;;;;17.83;6.40;;;;;;;26.23;42.88;100300.09;5069119;28;20056;-71
2022/05/12 09:12:49;;;;;;;13.10;5.93;;;;;;;26.29;42.43;100297.66;5053759;28;20041;-73
2022/05/12 09:15:22;;;;;;;13.27;6.15;;;;;;;26.44;42.39;100301.19;5054027;28;20045;-71
2022/05/12 09:17:56;;;;;;;19.08;6.30;;;;;;;26.57;42.65;100300.50;5052504;28;20500;-76
2022/05/12 09:20:28;;;;;;;12.50;5.70;;;;;;;26.67;41.37;100301.88;5052686;28;20049;-72
2022/05/12 09:22:58;;;;;;;11.52;5.95;;;;;;;26.72;41.64;100299.38;5052226;28;20060;-73
2022/05/12 09:25:33;;;;;;;13.88;5.82;;;;;;;26.80;41.58;100309.34;5053545;28;20048;-72
2022/05/12 09:28:18;;;;;;;11.77;5.90;;;;;;;26.94;40.68;100296.66;5053353;28;20505;-72
2022/05/12 09:30:48;;;;;;;10.20;6.05;;;;;;;26.90;40.62;100300.81;5052294;28;20053;-72
2022/05/12 09:33:25;;;;;;;12.85;5.78;;;;;;;26.90;40.79;100306.28;5052223;28;20053;-72
2022/05/12 09:35:59;;;;;;;14.90;5.38;;;;;;;27.01;40.71;100303.00;5053327;28;20049;-73
2022/05/12 09:38:28;;;;;;;11.38;5.65;;;;;;;27.01;40.83;100300.25;5053445;28;20072;-70
2022/05/12 09:40:57;;;;;;;12.68;5.63;;;;;;;27.04;40.57;100305.41;5053135;28;20127;-73
2022/05/12 09:43:31;;;;;;;14.68;6.13;;;;;;;27.16;40.16;100295.59;5053380;28;20064;-70
2022/05/12 09:46:04;;;;;;;11.88;5.47;;;;;;;27.26;40.05;100290.59;5068495;28;20052;-73
2022/05/12 09:48:33;;;;;;;11.20;5.78;;;;;;;27.31;39.83;100301.81;5052988;28;20064;-72
2022/05/12 09:51:22;;;;;;;12.15;5.40;;;;;;;27.36;40.19;100301.22;5053180;28;20049;-72
2022/05/12 09:53:53;;;;;;;9.55;5.97;;;;;;;27.45;40.02;100299.16;5053118;28;20176;-72
2022/05/12 09:56:29;;;;;;;;;;;;;;;27.47;40.42;100297.06;5068850;28;20228;-72
2022/05/12 09:59:10;;;;;;;11.30;5.47;;;;;;;27.44;40.11;100292.84;5052530;28;20335;-73
2022/05/12 10:01:52;;;;;;;11.45;5.75;;;;;;;27.62;39.66;100284.09;5053033;28;20124;-73
2022/05/12 10:10:24;;;;;;;12.45;5.95;;;;;;;27.74;39.96;100276.19;5052808;28;20057;-72
2022/05/12 10:13:00;;;;;;;8.90;5.60;;;;;;;27.64;40.33;100276.53;5051199;28;20486;-73
2022/05/12 10:15:32;;;;;;;16.17;5.68;;;;;;;27.70;40.04;100270.28;5050878;28;20049;-72
2022/05/12 10:18:04;;;;;;;13.70;5.78;;;;;;;27.80;40.04;100270.75;5052647;28;20076;-72
2022/05/12 10:20:39;;;;;;;13.20;5.80;;;;;;;27.91;39.41;100267.41;5052294;28;20128;-71
2022/05/12 10:23:21;;;;;;;10.35;5.65;;;;;;;28.00;39.20;100261.75;5052132;28;20049;-71
2022/05/12 10:25:59;;;;;;;9.98;5.60;;;;;;;28.10;39.27;100260.31;5050802;28;20555;-71
2022/05/12 10:28:42;;;;;;;11.50;5.78;;;;;;;28.16;39.34;100264.94;5052088;28;20392;-71
2022/05/12 10:31:16;;;;;;;;;;;;;;;28.27;39.58;100258.00;5051257;28;20053;-71
2022/05/12 10:33:55;;;;;;;10.90;5.32;;;;;;;28.17;38.89;100255.66;5067855;28;20027;-71
2022/05/12 10:36:36;;;;;;;9.75;5.18;;;;;;;28.33;38.16;100251.75;5056258;28;20037;-71
2022/05/12 10:39:15;;;;;;;7.78;5.15;;;;;;;28.34;38.11;100245.19;5071831;28;20140;-71
2022/05/12 10:41:53;;;;;;;9.05;4.90;;;;;;;28.48;38.16;100257.91;5056536;28;20068;-71
2022/05/12 10:44:39;;;;;;;9.75;4.70;;;;;;;28.56;37.67;100254.09;5055420;28;20494;-71
2022/05/12 10:47:16;;;;;;;9.20;4.88;;;;;;;28.55;37.80;100246.06;5071099;28;20548;-73
2022/05/12 10:49:59;;;;;;;6.45;4.80;;;;;;;28.65;38.05;100249.25;5056244;28;20045;-70
2022/05/12 10:52:39;;;;;;;11.05;4.93;;;;;;;28.82;37.98;100264.25;5056148;28;20082;-73
2022/05/12 10:55:21;;;;;;;9.10;5.30;;;;;;;28.79;37.22;100254.53;5056138;28;20478;-72
2022/05/12 10:58:04;;;;;;;10.85;5.35;;;;;;;28.85;36.78;100258.31;5056383;28;20045;-72
2022/05/12 11:00:51;;;;;;;11.07;5.05;;;;;;;28.87;37.39;100248.00;5055203;28;20053;-72
2022/05/12 11:03:24;;;;;;;11.88;5.28;;;;;;;28.97;37.64;100250.34;5054688;28;20075;-72
2022/05/12 11:05:57;;;;;;;6.63;4.78;;;;;;;29.00;37.33;100245.28;5055136;28;20045;-72
2022/05/12 11:08:31;;;;;;;10.68;5.18;;;;;;;29.08;36.83;100246.97;5054920;28;20470;-72
2022/05/12 11:11:02;;;;;;;10.00;5.13;;;;;;;29.06;37.37;100238.09;5056105;28;20041;-75
2022/05/12 11:13:37;;;;;;;10.30;5.07;;;;;;;29.35;36.95;100231.28;5056268;28;20045;-72
2022/05/12 11:16:11;;;;;;;9.10;5.10;;;;;;;29.41;36.78;100235.06;5054347;28;20136;-73
2022/05/12 11:18:45;;;;;;;10.15;5.25;;;;;;;29.39;36.53;100226.19;5054810;28;20482;-72
2022/05/12 11:21:17;;;;;;;8.43;5.05;;;;;;;29.21;37.04;100218.63;5055950;28;20486;-72
2022/05/12 11:23:58;;;;;;;7.63;4.88;;;;;;;29.26;37.24;100224.34;5054873;28;20045;-72
2022/05/12 11:26:44;;;;;;;9.82;5.03;;;;;;;29.40;37.18;100223.22;5054835;28;20049;-72
2022/05/12 11:32:21;;;;;;;9.48;4.65;;;;;;;29.56;36.29;100203.56;5055699;28;20045;-72
2022/05/12 11:34:54;;;;;;;7.22;4.65;;;;;;;29.56;35.77;100208.22;5055526;28;20053;-72
2022/05/12 11:37:33;;;;;;;7.72;4.38;;;;;;;29.63;35.40;100201.63;5055520;28;20045;-72
2022/05/12 11:40:08;;;;;;;7.30;4.20;;;;;;;29.68;35.38;100202.88;5055356;28;20048;-73
2022/05/12 11:46:26;;;;;;;9.10;4.70;;;;;;;29.39;35.26;100193.22;4995410;28;20046;-72
2022/05/12 11:48:59;;;;;;;7.07;4.53;;;;;;;29.57;35.66;100208.00;5012796;28;20169;-71
2022/05/12 11:51:41;;;;;;;6.53;4.00;;;;;;;29.89;34.18;100202.56;5040293;28;20461;-72
2022/05/12 11:54:21;;;;;;;10.07;4.35;;;;;;;29.79;34.98;100199.44;5053566;28;20053;-72
2022/05/12 11:56:52;;;;;;;8.55;4.18;;;;;;;29.74;34.60;100213.00;5055055;28;20094;-72
2022/05/12 11:59:48;;;;;;;7.47;4.18;;;;;;;29.72;34.18;100204.13;5053293;28;20143;-72